sensor_id;sensor_type;location;lat;lon;timestamp;P1;durP1;ratioP1;P2;durP2;ratioP2
12112;SDS011;6120;52.250;8.478;2023-03-01T07:37:24;16.70;;;8.02;;
12112;SDS011;6120;52.250;8.478;2023-03-01T07:39:51;17.40;;;9.02;;
12112;SDS011;6120;52.250;8.478;2023-03-01T07:42:18;19.70;;;9.25;;
12112;SDS011;6120;52.250;8.478;2023-03-01T07:44:44;16.95;;;9.73;;
12112;SDS011;6120;52.250;8.478;2023-03-01T07:47:11;21.00;;;9.48;;
12112;SDS011;6120;52.250;8.478;2023-03-01T07:49:37;20.33;;;9.90;;
12112;SDS011;6120;52.250;8.478;2023-03-01T07:52:04;19.08;;;10.48;;
12112;SDS011;6120;52.250;8.478;2023-03-01T07:54:31;20.00;;;10.30;;
12112;SDS011;6120;52.250;8.478;2023-03-01T07:56:57;21.70;;;10.82;;
12112;SDS011;6120;52.250;8.478;2023-03-01T07:59:24;20.40;;;10.80;;
12112;SDS011;6120;52.250;8.478;2023-03-01T08:01:55;18.85;;;9.57;;
12112;SDS011;6120;52.250;8.478;2023-03-01T08:04:22;18.90;;;10.38;;
12112;SDS011;6120;52.250;8.478;2023-03-01T08:09:17;17.40;;;8.63;;
12112;SDS011;6120;52.250;8.478;2023-03-01T08:11:44;18.63;;;9.00;;
12112;SDS011;6120;52.250;8.478;2023-03-01T08:14:10;19.00;;;8.95;;
12112;SDS011;6120;52.250;8.478;2023-03-01T08:16:37;18.02;;;8.60;;
12112;SDS011;6120;52.250;8.478;2023-03-01T08:19:07;15.05;;;7.97;;
12112;SDS011;6120;52.250;8.478;2023-03-01T08:21:36;13.45;;;7.03;;
12112;SDS011;6120;52.250;8.478;2023-03-01T08:24:03;12.07;;;6.38;;
12112;SDS011;6120;52.250;8.478;2023-03-01T08:26:32;10.10;;;5.35;;
12112;SDS011;6120;52.250;8.478;2023-03-01T08:28:59;13.32;;;5.63;;
12112;SDS011;6120;52.250;8.478;2023-03-01T08:31:27;10.38;;;5.88;;
12112;SDS011;6120;52.250;8.478;2023-03-01T08:33:59;10.68;;;5.88;;
12112;SDS011;6120;52.250;8.478;2023-03-01T08:36:27;8.75;;;5.15;;
12112;SDS011;6120;52.250;8.478;2023-03-01T08:38:56;8.88;;;4.70;;
12112;SDS011;6120;52.250;8.478;2023-03-01T08:41:23;9.38;;;5.00;;
12112;SDS011;6120;52.250;8.478;2023-03-01T08:43:50;8.07;;;3.85;;
12112;SDS011;6120;52.250;8.478;2023-03-01T08:46:17;13.88;;;6.93;;
12112;SDS011;6120;52.250;8.478;2023-03-01T08:48:43;13.30;;;6.65;;
12112;SDS011;6120;52.250;8.478;2023-03-01T08:51:11;10.82;;;6.55;;
12112;SDS011;6120;52.250;8.478;2023-03-01T08:53:39;13.48;;;7.47;;
12112;SDS011;6120;52.250;8.478;2023-03-01T08:56:07;10.82;;;5.35;;
12112;SDS011;6120;52.250;8.478;2023-03-01T08:58:34;8.98;;;5.43;;
12112;SDS011;6120;52.250;8.478;2023-03-01T09:01:06;10.00;;;5.45;;
12112;SDS011;6120;52.250;8.478;2023-03-01T09:03:34;13.23;;;6.95;;
12112;SDS011;6120;52.250;8.478;2023-03-01T09:06:01;9.02;;;4.65;;
12112;SDS011;6120;52.250;8.478;2023-03-01T09:08:29;9.50;;;5.28;;
12112;SDS011;6120;52.250;8.478;2023-03-01T09:10:57;11.50;;;5.95;;
12112;SDS011;6120;52.250;8.478;2023-03-01T09:13:23;10.93;;;6.07;;
12112;SDS011;6120;52.250;8.478;2023-03-01T09:15:51;9.75;;;5.07;;
12112;SDS011;6120;52.250;8.478;2023-03-01T09:18:17;11.65;;;5.35;;
12112;SDS011;6120;52.250;8.478;2023-03-01T09:20:44;10.00;;;4.40;;
12112;SDS011;6120;52.250;8.478;2023-03-01T09:23:11;8.50;;;4.45;;
12112;SDS011;6120;52.250;8.478;2023-03-01T09:25:38;7.63;;;4.55;;
12112;SDS011;6120;52.250;8.478;2023-03-01T09:28:05;9.48;;;5.43;;
12112;SDS011;6120;52.250;8.478;2023-03-01T09:30:31;7.90;;;4.53;;
12112;SDS011;6120;52.250;8.478;2023-03-01T09:32:58;10.80;;;4.53;;
12112;SDS011;6120;52.250;8.478;2023-03-01T09:35:25;8.73;;;4.60;;
12112;SDS011;6120;52.250;8.478;2023-03-01T09:37:51;9.73;;;5.03;;
12112;SDS011;6120;52.250;8.478;2023-03-01T09:40:19;9.45;;;5.28;;
12112;SDS011;6120;52.250;8.478;2023-03-01T09:42:52;10.52;;;5.55;;
12112;SDS011;6120;52.250;8.478;2023-03-01T09:45:35;8.90;;;4.63;;
12112;SDS011;6120;52.250;8.478;2023-03-01T09:48:06;8.75;;;5.38;;
12112;SDS011;6120;52.250;8.478;2023-03-01T09:50:40;8.80;;;5.25;;
12112;SDS011;6120;52.250;8.478;2023-03-01T09:53:42;17.95;;;6.05;;
12112;SDS011;6120;52.250;8.478;2023-03-01T09:56:03;11.23;;;5.55;;
12112;SDS011;6120;52.250;8.478;2023-03-01T09:58:41;10.13;;;6.22;;
12112;SDS011;6120;52.250;8.478;2023-03-01T10:01:25;12.60;;;6.53;;
12112;SDS011;6120;52.250;8.478;2023-03-01T10:07:42;13.55;;;5.88;;
12112;SDS011;6120;52.250;8.478;2023-03-01T10:10:04;8.60;;;5.30;;
12112;SDS011;6120;52.250;8.478;2023-03-01T10:12:37;12.70;;;6.00;;
12112;SDS011;6120;52.250;8.478;2023-03-01T10:15:09;10.25;;;5.75;;
12112;SDS011;6120;52.250;8.478;2023-03-01T10:20:28;11.23;;;5.50;;
12112;SDS011;6120;52.250;8.478;2023-03-01T10:22:59;9.10;;;5.25;;
12112;SDS011;6120;52.250;8.478;2023-03-01T10:28:18;13.38;;;5.60;;
12112;SDS011;6120;52.250;8.478;2023-03-01T10:30:50;12.00;;;6.32;;
12112;SDS011;6120;52.250;8.478;2023-03-01T10:33:22;13.70;;;6.00;;
12112;SDS011;6120;52.250;8.478;2023-03-01T10:35:50;11.63;;;5.30;;
12112;SDS011;6120;52.250;8.478;2023-03-01T10:38:17;8.60;;;4.35;;
12112;SDS011;6120;52.250;8.478;2023-03-01T10:40:53;9.52;;;4.90;;
12112;SDS011;6120;52.250;8.478;2023-03-01T10:43:29;10.32;;;4.30;;
12112;SDS011;6120;52.250;8.478;2023-03-01T10:51:50;8.98;;;4.10;;
12112;SDS011;6120;52.250;8.478;2023-03-01T10:56:46;8.70;;;4.60;;
12112;SDS011;6120;52.250;8.478;2023-03-01T10:59:34;21.98;;;8.52;;
12112;SDS011;6120;52.250;8.478;2023-03-01T11:04:58;10.27;;;5.75;;
12112;SDS011;6120;52.250;8.478;2023-03-01T11:07:26;15.05;;;6.38;;
12112;SDS011;6120;52.250;8.478;2023-03-01T11:09:53;12.18;;;5.70;;
12112;SDS011;6120;52.250;8.478;2023-03-01T11:12:19;10.75;;;6.10;;
12112;SDS011;6120;52.250;8.478;2023-03-01T11:14:47;9.75;;;5.05;;
12112;SDS011;6120;52.250;8.478;2023-03-01T11:22:53;9.00;;;4.68;;
12112;SDS011;6120;52.250;8.478;2023-03-01T11:25:23;8.98;;;4.82;;
12112;SDS011;6120;52.250;8.478;2023-03-01T11:27:51;9.10;;;4.53;;
12112;SDS011;6120;52.250;8.478;2023-03-01T11:30:28;8.07;;;4.13;;
12112;SDS011;6120;52.250;8.478;2023-03-01T11:35:55;11.15;;;5.13;;
12112;SDS011;6120;52.250;8.478;2023-03-01T11:38:26;9.95;;;4.22;;
12112;SDS011;6120;52.250;8.478;2023-03-01T11:51:52;6.97;;;3.67;;
12112;SDS011;6120;52.250;8.478;2023-03-01T12:05:36;8.13;;;4.50;;
12112;SDS011;6120;52.250;8.478;2023-03-01T12:08:22;7.28;;;4.15;;
12112;SDS011;6120;52.250;8.478;2023-03-01T12:20:21;10.00;;;4.05;;
12112;SDS011;6120;52.250;8.478;2023-03-01T12:26:15;12.43;;;7.00;;
12112;SDS011;6120;52.250;8.478;2023-03-01T12:40:15;8.57;;;4.35;;
12112;SDS011;6120;52.250;8.478;2023-03-01T12:43:00;8.05;;;3.83;;
12112;SDS011;6120;52.250;8.478;2023-03-01T12:45:58;7.45;;;4.03;;
12112;SDS011;6120;52.250;8.478;2023-03-01T12:48:50;7.65;;;3.47;;
12112;SDS011;6120;52.250;8.478;2023-03-01T12:51:30;6.50;;;3.50;;
12112;SDS011;6120;52.250;8.478;2023-03-01T12:53:58;7.82;;;3.22;;
12112;SDS011;6120;52.250;8.478;2023-03-01T12:56:27;9.88;;;3.10;;
12112;SDS011;6120;52.250;8.478;2023-03-01T13:01:51;7.28;;;3.70;;
12112;SDS011;6120;52.250;8.478;2023-03-01T13:10:20;16.13;;;6.75;;
12112;SDS011;6120;52.250;8.478;2023-03-01T13:17:52;10.57;;;3.53;;
12112;SDS011;6120;52.250;8.478;2023-03-01T13:21:07;8.20;;;3.63;;
12112;SDS011;6120;52.250;8.478;2023-03-01T13:31:10;57.40;;;19.25;;
12112;SDS011;6120;52.250;8.478;2023-03-01T13:33:58;21.50;;;7.80;;
12112;SDS011;6120;52.250;8.478;2023-03-01T13:39:03;6.35;;;3.30;;
12112;SDS011;6120;52.250;8.478;2023-03-01T13:46:51;6.32;;;3.65;;
12112;SDS011;6120;52.250;8.478;2023-03-01T13:49:27;6.22;;;3.35;;
12112;SDS011;6120;52.250;8.478;2023-03-01T13:57:57;11.57;;;5.38;;
12112;SDS011;6120;52.250;8.478;2023-03-01T14:00:27;8.38;;;3.72;;
12112;SDS011;6120;52.250;8.478;2023-03-01T14:03:01;7.72;;;3.80;;
12112;SDS011;6120;52.250;8.478;2023-03-01T14:05:37;5.97;;;3.42;;
12112;SDS011;6120;52.250;8.478;2023-03-01T14:08:05;10.30;;;4.43;;
12112;SDS011;6120;52.250;8.478;2023-03-01T14:10:37;9.27;;;3.80;;
12112;SDS011;6120;52.250;8.478;2023-03-01T14:18:29;34.35;;;12.85;;
12112;SDS011;6120;52.250;8.478;2023-03-01T14:21:06;26.58;;;9.93;;
12112;SDS011;6120;52.250;8.478;2023-03-01T14:23:33;6.82;;;3.40;;
12112;SDS011;6120;52.250;8.478;2023-03-01T14:26:02;8.48;;;3.80;;
12112;SDS011;6120;52.250;8.478;2023-03-01T14:28:30;9.83;;;4.63;;
12112;SDS011;6120;52.250;8.478;2023-03-01T14:31:00;9.50;;;3.70;;
12112;SDS011;6120;52.250;8.478;2023-03-01T14:33:31;11.20;;;4.70;;
12112;SDS011;6120;52.250;8.478;2023-03-01T14:36:01;9.70;;;4.50;;
12112;SDS011;6120;52.250;8.478;2023-03-01T14:38:35;10.13;;;4.93;;
12112;SDS011;6120;52.250;8.478;2023-03-01T14:41:06;8.48;;;3.40;;
12112;SDS011;6120;52.250;8.478;2023-03-01T14:43:37;6.93;;;3.42;;
12112;SDS011;6120;52.250;8.478;2023-03-01T14:46:23;6.53;;;3.25;;
12112;SDS011;6120;52.250;8.478;2023-03-01T14:48:54;5.55;;;3.20;;
12112;SDS011;6120;52.250;8.478;2023-03-01T14:51:28;4.57;;;3.00;;
12112;SDS011;6120;52.250;8.478;2023-03-01T14:53:55;5.28;;;2.92;;
12112;SDS011;6120;52.250;8.478;2023-03-01T14:56:22;6.70;;;2.92;;
12112;SDS011;6120;52.250;8.478;2023-03-01T14:58:52;7.70;;;4.45;;
12112;SDS011;6120;52.250;8.478;2023-03-01T15:01:20;6.97;;;4.20;;
12112;SDS011;6120;52.250;8.478;2023-03-01T15:03:48;6.13;;;3.95;;
12112;SDS011;6120;52.250;8.478;2023-03-01T15:06:16;11.05;;;6.57;;
12112;SDS011;6120;52.250;8.478;2023-03-01T15:08:47;9.18;;;5.53;;
12112;SDS011;6120;52.250;8.478;2023-03-01T15:13:49;8.02;;;5.05;;
12112;SDS011;6120;52.250;8.478;2023-03-01T15:16:17;8.98;;;5.00;;
12112;SDS011;6120;52.250;8.478;2023-03-01T15:18:46;5.80;;;3.30;;
12112;SDS011;6120;52.250;8.478;2023-03-01T15:21:16;7.70;;;4.30;;
12112;SDS011;6120;52.250;8.478;2023-03-01T15:23:47;5.82;;;3.50;;
12112;SDS011;6120;52.250;8.478;2023-03-01T15:26:54;4.13;;;2.35;;
12112;SDS011;6120;52.250;8.478;2023-03-01T15:29:21;8.60;;;4.28;;
12112;SDS011;6120;52.250;8.478;2023-03-01T15:34:33;4.22;;;2.40;;
12112;SDS011;6120;52.250;8.478;2023-03-01T15:37:04;9.10;;;5.57;;
12112;SDS011;6120;52.250;8.478;2023-03-01T15:42:58;5.40;;;2.85;;
12112;SDS011;6120;52.250;8.478;2023-03-01T15:47:39;7.55;;;3.20;;
12112;SDS011;6120;52.250;8.478;2023-03-01T15:50:19;5.65;;;3.83;;
12112;SDS011;6120;52.250;8.478;2023-03-01T15:52:48;5.25;;;3.08;;
12112;SDS011;6120;52.250;8.478;2023-03-01T15:55:17;5.60;;;2.60;;
12112;SDS011;6120;52.250;8.478;2023-03-01T15:57:47;6.13;;;3.20;;
12112;SDS011;6120;52.250;8.478;2023-03-01T16:00:15;5.63;;;3.33;;
12112;SDS011;6120;52.250;8.478;2023-03-01T16:02:43;5.57;;;2.60;;
12112;SDS011;6120;52.250;8.478;2023-03-01T16:05:23;4.22;;;2.60;;
12112;SDS011;6120;52.250;8.478;2023-03-01T16:07:54;5.82;;;2.28;;
12112;SDS011;6120;52.250;8.478;2023-03-01T16:10:21;10.15;;;4.55;;
12112;SDS011;6120;52.250;8.478;2023-03-01T16:12:49;6.07;;;2.70;;
12112;SDS011;6120;52.250;8.478;2023-03-01T16:15:19;7.22;;;3.55;;
12112;SDS011;6120;52.250;8.478;2023-03-01T16:17:47;4.45;;;2.60;;
12112;SDS011;6120;52.250;8.478;2023-03-01T16:20:14;5.72;;;2.90;;
12112;SDS011;6120;52.250;8.478;2023-03-01T16:22:53;6.03;;;2.72;;
12112;SDS011;6120;52.250;8.478;2023-03-01T16:25:20;4.68;;;2.53;;
12112;SDS011;6120;52.250;8.478;2023-03-01T16:27:48;4.80;;;2.08;;
12112;SDS011;6120;52.250;8.478;2023-03-01T16:30:16;19.58;;;6.70;;
12112;SDS011;6120;52.250;8.478;2023-03-01T16:32:45;6.72;;;3.08;;
12112;SDS011;6120;52.250;8.478;2023-03-01T16:35:13;6.68;;;3.22;;
12112;SDS011;6120;52.250;8.478;2023-03-01T16:37:41;6.93;;;3.55;;
12112;SDS011;6120;52.250;8.478;2023-03-01T16:40:22;4.93;;;2.47;;
12112;SDS011;6120;52.250;8.478;2023-03-01T16:42:51;6.10;;;2.80;;
12112;SDS011;6120;52.250;8.478;2023-03-01T16:45:18;6.00;;;2.90;;
12112;SDS011;6120;52.250;8.478;2023-03-01T16:47:50;6.22;;;2.80;;
12112;SDS011;6120;52.250;8.478;2023-03-01T16:50:20;3.80;;;2.08;;
12112;SDS011;6120;52.250;8.478;2023-03-01T16:52:47;5.88;;;2.30;;
12112;SDS011;6120;52.250;8.478;2023-03-01T16:55:14;4.28;;;2.35;;
12112;SDS011;6120;52.250;8.478;2023-03-01T16:57:41;3.65;;;2.20;;
12112;SDS011;6120;52.250;8.478;2023-03-01T17:00:08;4.22;;;2.20;;
12112;SDS011;6120;52.250;8.478;2023-03-01T17:02:36;3.55;;;1.95;;
12112;SDS011;6120;52.250;8.478;2023-03-01T17:05:03;5.18;;;2.33;;
12112;SDS011;6120;52.250;8.478;2023-03-01T17:07:31;4.17;;;1.87;;
12112;SDS011;6120;52.250;8.478;2023-03-01T17:10:02;4.68;;;2.38;;
12112;SDS011;6120;52.250;8.478;2023-03-01T17:14:58;4.77;;;2.30;;
12112;SDS011;6120;52.250;8.478;2023-03-01T17:17:24;4.55;;;2.30;;
12112;SDS011;6120;52.250;8.478;2023-03-01T17:19:51;3.70;;;2.03;;
12112;SDS011;6120;52.250;8.478;2023-03-01T17:22:18;4.85;;;2.33;;
12112;SDS011;6120;52.250;8.478;2023-03-01T17:24:45;4.30;;;2.28;;
12112;SDS011;6120;52.250;8.478;2023-03-01T17:27:12;5.05;;;2.35;;
12112;SDS011;6120;52.250;8.478;2023-03-01T17:29:39;5.43;;;2.30;;
12112;SDS011;6120;52.250;8.478;2023-03-01T17:32:06;5.28;;;2.70;;
12112;SDS011;6120;52.250;8.478;2023-03-01T17:34:34;4.57;;;1.92;;
12112;SDS011;6120;52.250;8.478;2023-03-01T17:37:00;4.55;;;2.55;;
12112;SDS011;6120;52.250;8.478;2023-03-01T17:39:27;6.72;;;2.50;;
12112;SDS011;6120;52.250;8.478;2023-03-01T17:42:02;6.75;;;2.90;;
12112;SDS011;6120;52.250;8.478;2023-03-01T17:44:30;5.00;;;2.35;;
12112;SDS011;6120;52.250;8.478;2023-03-01T17:47:00;5.60;;;2.80;;
12112;SDS011;6120;52.250;8.478;2023-03-01T17:49:27;6.45;;;2.85;;
12112;SDS011;6120;52.250;8.478;2023-03-01T17:51:54;6.30;;;2.95;;
12112;SDS011;6120;52.250;8.478;2023-03-01T17:54:21;6.18;;;2.80;;
12112;SDS011;6120;52.250;8.478;2023-03-01T17:56:48;7.55;;;3.47;;
12112;SDS011;6120;52.250;8.478;2023-03-01T17:59:15;6.07;;;3.40;;
12112;SDS011;6120;52.250;8.478;2023-03-01T18:01:44;7.30;;;3.28;;
12112;SDS011;6120;52.250;8.478;2023-03-01T18:04:11;6.30;;;2.90;;
12112;SDS011;6120;52.250;8.478;2023-03-01T18:06:38;7.00;;;3.53;;
12112;SDS011;6120;52.250;8.478;2023-03-01T18:09:06;8.10;;;3.63;;
12112;SDS011;6120;52.250;8.478;2023-03-01T18:11:33;7.47;;;3.10;;
12112;SDS011;6120;52.250;8.478;2023-03-01T18:14:01;6.20;;;2.75;;
12112;SDS011;6120;52.250;8.478;2023-03-01T18:18:57;7.03;;;3.08;;
12112;SDS011;6120;52.250;8.478;2023-03-01T18:21:25;6.87;;;2.80;;
12112;SDS011;6120;52.250;8.478;2023-03-01T18:23:51;6.60;;;2.80;;
12112;SDS011;6120;52.250;8.478;2023-03-01T18:26:19;4.88;;;2.50;;
12112;SDS011;6120;52.250;8.478;2023-03-01T18:28:48;7.38;;;2.97;;
12112;SDS011;6120;52.250;8.478;2023-03-01T18:31:17;6.47;;;2.90;;
12112;SDS011;6120;52.250;8.478;2023-03-01T18:33:53;9.95;;;3.78;;
12112;SDS011;6120;52.250;8.478;2023-03-01T18:36:25;7.78;;;3.17;;
12112;SDS011;6120;52.250;8.478;2023-03-01T18:38:53;7.72;;;3.20;;
12112;SDS011;6120;52.250;8.478;2023-03-01T18:41:24;10.60;;;3.90;;
12112;SDS011;6120;52.250;8.478;2023-03-01T18:43:52;6.93;;;3.47;;
12112;SDS011;6120;52.250;8.478;2023-03-01T18:46:19;7.20;;;3.28;;
12112;SDS011;6120;52.250;8.478;2023-03-01T18:48:46;8.27;;;3.63;;
12112;SDS011;6120;52.250;8.478;2023-03-01T18:51:17;7.17;;;3.50;;
12112;SDS011;6120;52.250;8.478;2023-03-01T18:53:45;7.22;;;3.53;;
12112;SDS011;6120;52.250;8.478;2023-03-01T18:56:13;6.05;;;3.35;;
12112;SDS011;6120;52.250;8.478;2023-03-01T18:58:40;6.75;;;3.45;;
12112;SDS011;6120;52.250;8.478;2023-03-01T19:01:15;9.25;;;3.85;;
12112;SDS011;6120;52.250;8.478;2023-03-01T19:03:45;6.63;;;3.05;;
12112;SDS011;6120;52.250;8.478;2023-03-01T19:06:12;6.35;;;3.38;;
12112;SDS011;6120;52.250;8.478;2023-03-01T19:08:40;6.15;;;3.17;;
12112;SDS011;6120;52.250;8.478;2023-03-01T19:11:08;7.47;;;3.60;;
12112;SDS011;6120;52.250;8.478;2023-03-01T19:13:36;8.27;;;3.70;;
12112;SDS011;6120;52.250;8.478;2023-03-01T19:16:07;6.43;;;3.25;;
12112;SDS011;6120;52.250;8.478;2023-03-01T19:18:40;6.75;;;3.50;;
12112;SDS011;6120;52.250;8.478;2023-03-01T19:23:35;7.05;;;2.97;;
12112;SDS011;6120;52.250;8.478;2023-03-01T19:26:04;5.93;;;2.85;;
12112;SDS011;6120;52.250;8.478;2023-03-01T19:28:32;8.57;;;3.53;;
12112;SDS011;6120;52.250;8.478;2023-03-01T19:31:03;9.27;;;3.10;;
12112;SDS011;6120;52.250;8.478;2023-03-01T19:33:32;6.70;;;3.13;;
12112;SDS011;6120;52.250;8.478;2023-03-01T19:36:00;7.28;;;3.35;;
12112;SDS011;6120;52.250;8.478;2023-03-01T19:38:28;6.57;;;3.13;;
12112;SDS011;6120;52.250;8.478;2023-03-01T19:40:55;7.28;;;2.95;;
12112;SDS011;6120;52.250;8.478;2023-03-01T19:43:22;8.00;;;3.10;;
12112;SDS011;6120;52.250;8.478;2023-03-01T19:45:50;7.05;;;2.92;;
12112;SDS011;6120;52.250;8.478;2023-03-01T19:48:17;6.88;;;2.80;;
12112;SDS011;6120;52.250;8.478;2023-03-01T19:50:44;8.82;;;3.22;;
12112;SDS011;6120;52.250;8.478;2023-03-01T19:53:11;5.13;;;2.95;;
12112;SDS011;6120;52.250;8.478;2023-03-01T19:55:38;6.78;;;3.25;;
12112;SDS011;6120;52.250;8.478;2023-03-01T19:58:05;5.75;;;3.50;;
12112;SDS011;6120;52.250;8.478;2023-03-01T20:00:32;7.18;;;3.70;;
12112;SDS011;6120;52.250;8.478;2023-03-01T20:02:59;7.80;;;3.17;;
12112;SDS011;6120;52.250;8.478;2023-03-01T20:05:26;6.95;;;3.28;;
12112;SDS011;6120;52.250;8.478;2023-03-01T20:07:53;5.07;;;2.47;;
12112;SDS011;6120;52.250;8.478;2023-03-01T20:10:23;5.82;;;2.80;;
12112;SDS011;6120;52.250;8.478;2023-03-01T20:12:53;8.32;;;2.90;;
12112;SDS011;6120;52.250;8.478;2023-03-01T20:15:20;6.20;;;2.95;;
12112;SDS011;6120;52.250;8.478;2023-03-01T20:17:46;5.40;;;2.88;;
12112;SDS011;6120;52.250;8.478;2023-03-01T20:20:13;7.90;;;3.45;;
12112;SDS011;6120;52.250;8.478;2023-03-01T20:22:40;6.10;;;3.05;;
12112;SDS011;6120;52.250;8.478;2023-03-01T20:25:07;6.77;;;3.03;;
12112;SDS011;6120;52.250;8.478;2023-03-01T20:27:34;6.53;;;2.92;;
12112;SDS011;6120;52.250;8.478;2023-03-01T20:30:01;6.50;;;3.15;;
12112;SDS011;6120;52.250;8.478;2023-03-01T20:32:29;6.45;;;3.03;;
12112;SDS011;6120;52.250;8.478;2023-03-01T20:34:56;7.40;;;3.25;;
12112;SDS011;6120;52.250;8.478;2023-03-01T20:37:23;8.65;;;4.15;;
12112;SDS011;6120;52.250;8.478;2023-03-01T20:39:49;8.05;;;3.55;;
12112;SDS011;6120;52.250;8.478;2023-03-01T20:42:16;8.32;;;3.75;;
12112;SDS011;6120;52.250;8.478;2023-03-01T20:44:42;6.80;;;3.28;;
12112;SDS011;6120;52.250;8.478;2023-03-01T20:47:10;7.55;;;3.53;;
12112;SDS011;6120;52.250;8.478;2023-03-01T20:49:36;7.70;;;3.38;;
12112;SDS011;6120;52.250;8.478;2023-03-01T20:52:03;8.02;;;3.50;;
12112;SDS011;6120;52.250;8.478;2023-03-01T20:54:30;6.20;;;2.92;;
12112;SDS011;6120;52.250;8.478;2023-03-01T20:56:57;9.00;;;3.55;;
12112;SDS011;6120;52.250;8.478;2023-03-01T20:59:24;7.03;;;3.13;;
12112;SDS011;6120;52.250;8.478;2023-03-01T21:01:50;6.18;;;2.90;;
12112;SDS011;6120;52.250;8.478;2023-03-01T21:04:17;4.93;;;2.83;;
12112;SDS011;6120;52.250;8.478;2023-03-01T21:06:44;5.88;;;2.90;;
12112;SDS011;6120;52.250;8.478;2023-03-01T21:09:11;8.30;;;3.53;;
12112;SDS011;6120;52.250;8.478;2023-03-01T21:11:37;6.80;;;2.72;;
12112;SDS011;6120;52.250;8.478;2023-03-01T21:14:04;4.68;;;2.35;;
12112;SDS011;6120;52.250;8.478;2023-03-01T21:16:31;5.25;;;2.65;;
12112;SDS011;6120;52.250;8.478;2023-03-01T21:18:59;6.03;;;2.63;;
12112;SDS011;6120;52.250;8.478;2023-03-01T21:21:31;5.68;;;2.88;;
12112;SDS011;6120;52.250;8.478;2023-03-01T21:23:58;7.88;;;3.53;;
12112;SDS011;6120;52.250;8.478;2023-03-01T21:26:25;6.32;;;3.10;;
12112;SDS011;6120;52.250;8.478;2023-03-01T21:28:54;6.20;;;3.53;;
12112;SDS011;6120;52.250;8.478;2023-03-01T21:31:26;6.05;;;3.00;;
12112;SDS011;6120;52.250;8.478;2023-03-01T21:33:55;9.75;;;3.20;;
12112;SDS011;6120;52.250;8.478;2023-03-01T21:36:24;7.22;;;3.20;;
12112;SDS011;6120;52.250;8.478;2023-03-01T21:38:52;6.57;;;3.60;;
12112;SDS011;6120;52.250;8.478;2023-03-01T21:41:26;7.32;;;3.65;;
12112;SDS011;6120;52.250;8.478;2023-03-01T21:43:54;6.30;;;3.35;;
12112;SDS011;6120;52.250;8.478;2023-03-01T21:48:50;6.07;;;3.05;;
12112;SDS011;6120;52.250;8.478;2023-03-01T21:53:45;7.75;;;2.72;;
12112;SDS011;6120;52.250;8.478;2023-03-01T21:56:16;7.28;;;3.15;;
12112;SDS011;6120;52.250;8.478;2023-03-01T21:58:45;8.00;;;3.00;;
12112;SDS011;6120;52.250;8.478;2023-03-01T22:07:01;8.32;;;3.03;;
12112;SDS011;6120;52.250;8.478;2023-03-01T22:09:28;6.88;;;3.55;;
12112;SDS011;6120;52.250;8.478;2023-03-01T22:11:57;6.30;;;3.58;;
12112;SDS011;6120;52.250;8.478;2023-03-01T22:14:27;8.32;;;3.45;;
12112;SDS011;6120;52.250;8.478;2023-03-01T22:16:55;6.10;;;3.42;;
12112;SDS011;6120;52.250;8.478;2023-03-01T22:19:22;9.27;;;3.97;;
12112;SDS011;6120;52.250;8.478;2023-03-01T22:21:50;9.38;;;3.67;;
12112;SDS011;6120;52.250;8.478;2023-03-01T22:24:18;7.22;;;3.78;;
12112;SDS011;6120;52.250;8.478;2023-03-01T22:26:46;7.45;;;3.30;;
12112;SDS011;6120;52.250;8.478;2023-03-01T22:29:19;8.18;;;3.80;;
12112;SDS011;6120;52.250;8.478;2023-03-01T22:31:47;5.65;;;3.17;;
12112;SDS011;6120;52.250;8.478;2023-03-01T22:34:14;6.05;;;3.30;;
12112;SDS011;6120;52.250;8.478;2023-03-01T22:36:42;7.93;;;3.65;;
12112;SDS011;6120;52.250;8.478;2023-03-01T22:39:10;7.18;;;3.22;;
12112;SDS011;6120;52.250;8.478;2023-03-01T22:41:38;6.72;;;3.50;;
12112;SDS011;6120;52.250;8.478;2023-03-01T22:44:10;7.15;;;3.38;;
12112;SDS011;6120;52.250;8.478;2023-03-01T22:46:37;7.70;;;4.05;;
12112;SDS011;6120;52.250;8.478;2023-03-01T22:49:04;7.28;;;3.65;;
12112;SDS011;6120;52.250;8.478;2023-03-01T22:51:32;7.38;;;3.83;;
12112;SDS011;6120;52.250;8.478;2023-03-01T22:54:00;8.80;;;3.67;;
12112;SDS011;6120;52.250;8.478;2023-03-01T22:56:28;8.90;;;4.28;;
12112;SDS011;6120;52.250;8.478;2023-03-01T22:58:57;7.43;;;4.10;;
12112;SDS011;6120;52.250;8.478;2023-03-01T23:01:25;7.15;;;3.88;;
12112;SDS011;6120;52.250;8.478;2023-03-01T23:03:52;7.53;;;3.78;;
12112;SDS011;6120;52.250;8.478;2023-03-01T23:06:19;7.72;;;3.90;;
12112;SDS011;6120;52.250;8.478;2023-03-01T23:08:50;7.82;;;3.42;;
12112;SDS011;6120;52.250;8.478;2023-03-01T23:11:18;7.32;;;4.03;;
12112;SDS011;6120;52.250;8.478;2023-03-01T23:13:46;6.35;;;3.58;;
12112;SDS011;6120;52.250;8.478;2023-03-01T23:16:13;9.27;;;3.78;;
12112;SDS011;6120;52.250;8.478;2023-03-01T23:18:41;8.63;;;3.85;;
12112;SDS011;6120;52.250;8.478;2023-03-01T23:21:14;8.10;;;4.07;;
12112;SDS011;6120;52.250;8.478;2023-03-01T23:23:44;6.63;;;3.78;;
12112;SDS011;6120;52.250;8.478;2023-03-01T23:26:15;8.32;;;4.30;;
12112;SDS011;6120;52.250;8.478;2023-03-01T23:28:42;7.40;;;3.67;;
12112;SDS011;6120;52.250;8.478;2023-03-01T23:31:10;8.70;;;3.42;;
12112;SDS011;6120;52.250;8.478;2023-03-01T23:33:39;6.55;;;3.90;;
12112;SDS011;6120;52.250;8.478;2023-03-01T23:36:19;8.00;;;4.03;;
12112;SDS011;6120;52.250;8.478;2023-03-01T23:38:50;8.10;;;4.05;;
12112;SDS011;6120;52.250;8.478;2023-03-01T23:41:19;7.65;;;4.32;;
12112;SDS011;6120;52.250;8.478;2023-03-01T23:43:48;9.52;;;4.60;;
12112;SDS011;6120;52.250;8.478;2023-03-01T23:46:16;7.72;;;3.90;;
12112;SDS011;6120;52.250;8.478;2023-03-01T23:48:44;9.70;;;4.32;;
12112;SDS011;6120;52.250;8.478;2023-03-01T23:51:11;8.65;;;4.03;;
12112;SDS011;6120;52.250;8.478;2023-03-01T23:53:39;7.72;;;3.88;;
12112;SDS011;6120;52.250;8.478;2023-03-01T23:56:09;7.55;;;4.00;;
12112;SDS011;6120;52.250;8.478;2023-03-01T23:58:37;6.07;;;3.38;;
